sensor_id;sensor_type;location;lat;lon;timestamp;pressure;altitude;pressure_sealevel;temperature;humidity
61037;BME280;72210;47.076;15.430;2023-12-29T00:01:38;97459.53;;;1.36;100.00
61037;BME280;72210;47.076;15.430;2023-12-29T00:04:06;97451.97;;;1.30;100.00
61037;BME280;72210;47.076;15.430;2023-12-29T00:06:37;97449.50;;;1.25;100.00
61037;BME280;72210;47.076;15.430;2023-12-29T00:09:18;97447.81;;;1.26;100.00
61037;BME280;72210;47.076;15.430;2023-12-29T00:11:46;97452.09;;;1.24;100.00
61037;BME280;72210;47.076;15.430;2023-12-29T00:14:13;97451.38;;;1.19;100.00
61037;BME280;72210;47.076;15.430;2023-12-29T00:16:43;97450.63;;;1.14;100.00
61037;BME280;72210;47.076;15.430;2023-12-29T00:19:11;97457.50;;;1.10;100.00
61037;BME280;72210;47.076;15.430;2023-12-29T00:21:38;97463.59;;;1.06;100.00
61037;BME280;72210;47.076;15.430;2023-12-29T00:24:05;97460.28;;;0.99;100.00
61037;BME280;72210;47.076;15.430;2023-12-29T00:26:33;97458.66;;;0.97;100.00
61037;BME280;72210;47.076;15.430;2023-12-29T00:29:00;97457.78;;;0.96;100.00
61037;BME280;72210;47.076;15.430;2023-12-29T00:31:27;97456.19;;;0.92;100.00
61037;BME280;72210;47.076;15.430;2023-12-29T00:33:56;97446.84;;;0.88;100.00
61037;BME280;72210;47.076;15.430;2023-12-29T00:36:24;97445.19;;;0.85;100.00
61037;BME280;72210;47.076;15.430;2023-12-29T00:38:51;97444.41;;;0.82;100.00
61037;BME280;72210;47.076;15.430;2023-12-29T00:41:19;97441.88;;;0.80;100.00
61037;BME280;72210;47.076;15.430;2023-12-29T00:43:46;97452.13;;;0.80;100.00
61037;BME280;72210;47.076;15.430;2023-12-29T00:46:14;97449.59;;;0.79;100.00
61037;BME280;72210;47.076;15.430;2023-12-29T00:48:42;97460.66;;;0.81;100.00
61037;BME280;72210;47.076;15.430;2023-12-29T00:51:11;97459.72;;;0.85;100.00
61037;BME280;72210;47.076;15.430;2023-12-29T00:53:38;97459.59;;;0.91;100.00
61037;BME280;72210;47.076;15.430;2023-12-29T00:56:10;97461.19;;;0.98;100.00
61037;BME280;72210;47.076;15.430;2023-12-29T00:58:37;97474.84;;;0.99;100.00
61037;BME280;72210;47.076;15.430;2023-12-29T01:01:06;97475.66;;;1.01;100.00
61037;BME280;72210;47.076;15.430;2023-12-29T01:03:34;97473.03;;;1.04;100.00
61037;BME280;72210;47.076;15.430;2023-12-29T01:06:01;97473.78;;;1.11;100.00
61037;BME280;72210;47.076;15.430;2023-12-29T01:08:30;97464.28;;;1.14;100.00
61037;BME280;72210;47.076;15.430;2023-12-29T01:10:58;97446.97;;;1.24;100.00
61037;BME280;72210;47.076;15.430;2023-12-29T01:13:25;97453.63;;;1.33;100.00
61037;BME280;72210;47.076;15.430;2023-12-29T01:15:52;97451.03;;;1.34;100.00
61037;BME280;72210;47.076;15.430;2023-12-29T01:18:20;97438.88;;;1.42;100.00
61037;BME280;72210;47.076;15.430;2023-12-29T01:20:47;97427.34;;;1.62;100.00
61037;BME280;72210;47.076;15.430;2023-12-29T01:23:15;97433.75;;;1.80;100.00
61037;BME280;72210;47.076;15.430;2023-12-29T01:25:45;97429.06;;;1.97;100.00
61037;BME280;72210;47.076;15.430;2023-12-29T01:28:12;97429.00;;;2.01;100.00
61037;BME280;72210;47.076;15.430;2023-12-29T01:30:39;97435.94;;;1.95;100.00
61037;BME280;72210;47.076;15.430;2023-12-29T01:33:07;97436.75;;;1.99;100.00
61037;BME280;72210;47.076;15.430;2023-12-29T01:35:35;97429.84;;;2.01;100.00
61037;BME280;72210;47.076;15.430;2023-12-29T01:38:02;97424.63;;;2.04;100.00
61037;BME280;72210;47.076;15.430;2023-12-29T01:40:30;97425.31;;;2.11;100.00
61037;BME280;72210;47.076;15.430;2023-12-29T01:43:01;97422.53;;;2.19;100.00
61037;BME280;72210;47.076;15.430;2023-12-29T01:45:29;97427.84;;;2.12;100.00
61037;BME280;72210;47.076;15.430;2023-12-29T01:47:57;97421.06;;;2.10;100.00
61037;BME280;72210;47.076;15.430;2023-12-29T01:50:25;97419.41;;;2.07;100.00
61037;BME280;72210;47.076;15.430;2023-12-29T01:52:53;97426.56;;;1.94;100.00
61037;BME280;72210;47.076;15.430;2023-12-29T01:55:22;97421.69;;;1.84;100.00
61037;BME280;72210;47.076;15.430;2023-12-29T01:57:52;97409.81;;;1.79;100.00
61037;BME280;72210;47.076;15.430;2023-12-29T02:00:22;97397.84;;;1.78;100.00
61037;BME280;72210;47.076;15.430;2023-12-29T02:02:49;97388.25;;;1.87;100.00
61037;BME280;72210;47.076;15.430;2023-12-29T02:05:17;97387.09;;;1.97;100.00
61037;BME280;72210;47.076;15.430;2023-12-29T02:07:47;97385.28;;;2.02;100.00
61037;BME280;72210;47.076;15.430;2023-12-29T02:10:17;97370.59;;;2.07;100.00
61037;BME280;72210;47.076;15.430;2023-12-29T02:12:46;97374.00;;;2.08;100.00
61037;BME280;72210;47.076;15.430;2023-12-29T02:15:15;97367.94;;;2.10;100.00
61037;BME280;72210;47.076;15.430;2023-12-29T02:17:49;97359.31;;;2.13;100.00
61037;BME280;72210;47.076;15.430;2023-12-29T02:20:20;97356.75;;;2.13;100.00
61037;BME280;72210;47.076;15.430;2023-12-29T02:22:47;97350.72;;;2.14;100.00
61037;BME280;72210;47.076;15.430;2023-12-29T02:25:16;97357.50;;;2.17;100.00
61037;BME280;72210;47.076;15.430;2023-12-29T02:27:49;97366.00;;;2.19;100.00
61037;BME280;72210;47.076;15.430;2023-12-29T02:30:22;97367.75;;;2.18;100.00
61037;BME280;72210;47.076;15.430;2023-12-29T02:32:55;97362.56;;;2.20;100.00
61037;BME280;72210;47.076;15.430;2023-12-29T02:35:28;97356.59;;;2.19;100.00
61037;BME280;72210;47.076;15.430;2023-12-29T02:37:56;97355.66;;;2.22;100.00
61037;BME280;72210;47.076;15.430;2023-12-29T02:40:26;97359.09;;;2.22;100.00
61037;BME280;72210;47.076;15.430;2023-12-29T02:42:53;97349.63;;;2.23;100.00
61037;BME280;72210;47.076;15.430;2023-12-29T02:45:21;97356.31;;;2.28;100.00
61037;BME280;72210;47.076;15.430;2023-12-29T02:47:49;97344.38;;;2.27;100.00
61037;BME280;72210;47.076;15.430;2023-12-29T02:50:16;97359.63;;;2.33;100.00
61037;BME280;72210;47.076;15.430;2023-12-29T02:52:43;97339.69;;;2.42;100.00
61037;BME280;72210;47.076;15.430;2023-12-29T02:55:11;97353.13;;;2.51;100.00
61037;BME280;72210;47.076;15.430;2023-12-29T02:57:41;97353.91;;;2.55;100.00
61037;BME280;72210;47.076;15.430;2023-12-29T03:00:08;97344.53;;;2.53;100.00
61037;BME280;72210;47.076;15.430;2023-12-29T03:02:36;97339.50;;;2.49;100.00
61037;BME280;72210;47.076;15.430;2023-12-29T03:05:04;97339.56;;;2.46;100.00
61037;BME280;72210;47.076;15.430;2023-12-29T03:07:32;97348.16;;;2.45;100.00
61037;BME280;72210;47.076;15.430;2023-12-29T03:09:59;97346.56;;;2.41;100.00
61037;BME280;72210;47.076;15.430;2023-12-29T03:12:27;97352.63;;;2.39;100.00
61037;BME280;72210;47.076;15.430;2023-12-29T03:14:56;97344.13;;;2.37;100.00
61037;BME280;72210;47.076;15.430;2023-12-29T03:17:23;97347.63;;;2.34;100.00
61037;BME280;72210;47.076;15.430;2023-12-29T03:19:51;97340.75;;;2.34;100.00
61037;BME280;72210;47.076;15.430;2023-12-29T03:22:19;97345.78;;;2.38;100.00
61037;BME280;72210;47.076;15.430;2023-12-29T03:24:46;97348.44;;;2.34;100.00
61037;BME280;72210;47.076;15.430;2023-12-29T03:27:14;97350.28;;;2.31;100.00
61037;BME280;72210;47.076;15.430;2023-12-29T03:29:41;97351.19;;;2.28;100.00
61037;BME280;72210;47.076;15.430;2023-12-29T03:32:10;97345.22;;;2.28;100.00
61037;BME280;72210;47.076;15.430;2023-12-29T03:34:38;97346.31;;;2.19;100.00
61037;BME280;72210;47.076;15.430;2023-12-29T03:37:07;97353.63;;;2.00;100.00
61037;BME280;72210;47.076;15.430;2023-12-29T03:39:34;97352.69;;;1.70;100.00
61037;BME280;72210;47.076;15.430;2023-12-29T03:42:03;97349.91;;;1.43;100.00
61037;BME280;72210;47.076;15.430;2023-12-29T03:44:31;97345.34;;;1.18;100.00
61037;BME280;72210;47.076;15.430;2023-12-29T03:46:59;97348.34;;;0.98;100.00
61037;BME280;72210;47.076;15.430;2023-12-29T03:49:28;97349.53;;;0.82;100.00
61037;BME280;72210;47.076;15.430;2023-12-29T03:51:56;97354.06;;;0.70;100.00
61037;BME280;72210;47.076;15.430;2023-12-29T03:54:24;97354.28;;;0.60;100.00
61037;BME280;72210;47.076;15.430;2023-12-29T03:56:51;97367.22;;;0.52;100.00
61037;BME280;72210;47.076;15.430;2023-12-29T03:59:19;97371.72;;;0.41;100.00
61037;BME280;72210;47.076;15.430;2023-12-29T04:01:46;97371.84;;;0.34;100.00
61037;BME280;72210;47.076;15.430;2023-12-29T04:04:13;97370.41;;;0.20;100.00
61037;BME280;72210;47.076;15.430;2023-12-29T04:06:42;97363.75;;;0.09;100.00
61037;BME280;72210;47.076;15.430;2023-12-29T04:09:09;97378.38;;;0.03;100.00
61037;BME280;72210;47.076;15.430;2023-12-29T04:11:37;97377.69;;;-0.07;100.00
61037;BME280;72210;47.076;15.430;2023-12-29T04:14:04;97374.41;;;-0.14;100.00
61037;BME280;72210;47.076;15.430;2023-12-29T04:16:31;97373.63;;;-0.19;100.00
61037;BME280;72210;47.076;15.430;2023-12-29T04:18:59;97372.81;;;-0.21;100.00
61037;BME280;72210;47.076;15.430;2023-12-29T04:21:26;97376.22;;;-0.21;100.00
61037;BME280;72210;47.076;15.430;2023-12-29T04:23:55;97381.31;;;-0.19;100.00
61037;BME280;72210;47.076;15.430;2023-12-29T04:26:25;97373.69;;;-0.24;100.00
61037;BME280;72210;47.076;15.430;2023-12-29T04:28:52;97378.84;;;-0.25;100.00
61037;BME280;72210;47.076;15.430;2023-12-29T04:31:19;97389.88;;;-0.20;100.00
61037;BME280;72210;47.076;15.430;2023-12-29T04:33:46;97377.03;;;-0.19;100.00
61037;BME280;72210;47.076;15.430;2023-12-29T04:36:13;97388.06;;;-0.15;100.00
61037;BME280;72210;47.076;15.430;2023-12-29T04:38:41;97388.13;;;-0.18;100.00
61037;BME280;72210;47.076;15.430;2023-12-29T04:41:11;97390.78;;;-0.24;100.00
61037;BME280;72210;47.076;15.430;2023-12-29T04:43:38;97395.19;;;-0.32;100.00
61037;BME280;72210;47.076;15.430;2023-12-29T04:46:06;97394.38;;;-0.36;100.00
61037;BME280;72210;47.076;15.430;2023-12-29T04:48:33;97384.19;;;-0.39;100.00
61037;BME280;72210;47.076;15.430;2023-12-29T04:51:00;97392.78;;;-0.42;100.00
61037;BME280;72210;47.076;15.430;2023-12-29T04:53:29;97386.84;;;-0.45;100.00
61037;BME280;72210;47.076;15.430;2023-12-29T04:55:56;97393.63;;;-0.43;100.00
61037;BME280;72210;47.076;15.430;2023-12-29T04:58:25;97402.16;;;-0.44;100.00
61037;BME280;72210;47.076;15.430;2023-12-29T05:00:52;97402.13;;;-0.41;100.00
61037;BME280;72210;47.076;15.430;2023-12-29T05:03:20;97404.69;;;-0.42;100.00
61037;BME280;72210;47.076;15.430;2023-12-29T05:05:47;97408.09;;;-0.40;100.00
61037;BME280;72210;47.076;15.430;2023-12-29T05:08:15;97402.97;;;-0.39;100.00
61037;BME280;72210;47.076;15.430;2023-12-29T05:10:42;97404.69;;;-0.41;100.00
61037;BME280;72210;47.076;15.430;2023-12-29T05:13:10;97398.69;;;-0.38;100.00
61037;BME280;72210;47.076;15.430;2023-12-29T05:15:38;97397.88;;;-0.40;100.00
61037;BME280;72210;47.076;15.430;2023-12-29T05:18:06;97400.41;;;-0.40;100.00
61037;BME280;72210;47.076;15.430;2023-12-29T05:20:33;97396.19;;;-0.43;100.00
61037;BME280;72210;47.076;15.430;2023-12-29T05:23:01;97408.97;;;-0.41;100.00
61037;BME280;72210;47.076;15.430;2023-12-29T05:25:28;97405.59;;;-0.43;100.00
61037;BME280;72210;47.076;15.430;2023-12-29T05:27:55;97414.94;;;-0.42;100.00
61037;BME280;72210;47.076;15.430;2023-12-29T05:30:22;97416.59;;;-0.38;100.00
61037;BME280;72210;47.076;15.430;2023-12-29T05:32:54;97417.44;;;-0.38;100.00
61037;BME280;72210;47.076;15.430;2023-12-29T05:35:21;97407.97;;;-0.32;100.00
61037;BME280;72210;47.076;15.430;2023-12-29T05:37:48;97410.53;;;-0.32;100.00
61037;BME280;72210;47.076;15.430;2023-12-29T05:40:16;97419.88;;;-0.30;100.00
61037;BME280;72210;47.076;15.430;2023-12-29T05:42:43;97415.63;;;-0.31;100.00
61037;BME280;72210;47.076;15.430;2023-12-29T05:45:11;97422.28;;;-0.21;100.00
61037;BME280;72210;47.076;15.430;2023-12-29T05:47:39;97420.59;;;-0.20;100.00
61037;BME280;72210;47.076;15.430;2023-12-29T05:50:10;97421.41;;;-0.18;100.00
61037;BME280;72210;47.076;15.430;2023-12-29T05:52:37;97417.03;;;-0.13;100.00
61037;BME280;72210;47.076;15.430;2023-12-29T05:55:05;97405.88;;;-0.09;100.00
61037;BME280;72210;47.076;15.430;2023-12-29T05:57:36;97407.50;;;-0.02;100.00
61037;BME280;72210;47.076;15.430;2023-12-29T06:00:04;97395.38;;;0.08;100.00
61037;BME280;72210;47.076;15.430;2023-12-29T06:02:31;97396.00;;;0.20;100.00
61037;BME280;72210;47.076;15.430;2023-12-29T06:04:59;97393.28;;;0.29;100.00
61037;BME280;72210;47.076;15.430;2023-12-29T06:07:30;97395.66;;;0.40;100.00
61037;BME280;72210;47.076;15.430;2023-12-29T06:09:58;97394.72;;;0.44;100.00
61037;BME280;72210;47.076;15.430;2023-12-29T06:12:25;97412.75;;;0.39;100.00
61037;BME280;72210;47.076;15.430;2023-12-29T06:14:52;97408.63;;;0.30;100.00
61037;BME280;72210;47.076;15.430;2023-12-29T06:17:20;97418.91;;;0.29;100.00
61037;BME280;72210;47.076;15.430;2023-12-29T06:19:48;97424.03;;;0.29;100.00
61037;BME280;72210;47.076;15.430;2023-12-29T06:22:17;97415.50;;;0.28;100.00
61037;BME280;72210;47.076;15.430;2023-12-29T06:24:46;97418.97;;;0.26;100.00
61037;BME280;72210;47.076;15.430;2023-12-29T06:27:14;97409.56;;;0.25;100.00
61037;BME280;72210;47.076;15.430;2023-12-29T06:29:41;97414.53;;;0.34;100.00
61037;BME280;72210;47.076;15.430;2023-12-29T06:32:09;97398.13;;;0.44;100.00
61037;BME280;72210;47.076;15.430;2023-12-29T06:34:36;97407.31;;;0.56;100.00
61037;BME280;72210;47.076;15.430;2023-12-29T06:37:04;97396.88;;;0.65;100.00
61037;BME280;72210;47.076;15.430;2023-12-29T06:39:32;97411.25;;;0.73;100.00
61037;BME280;72210;47.076;15.430;2023-12-29T06:42:01;97414.66;;;0.75;100.00
61037;BME280;72210;47.076;15.430;2023-12-29T06:44:28;97416.53;;;0.65;100.00
61037;BME280;72210;47.076;15.430;2023-12-29T06:46:55;97420.09;;;0.58;100.00
61037;BME280;72210;47.076;15.430;2023-12-29T06:49:23;97415.09;;;0.51;100.00
61037;BME280;72210;47.076;15.430;2023-12-29T06:51:51;97422.81;;;0.50;100.00
61037;BME280;72210;47.076;15.430;2023-12-29T06:54:19;97420.19;;;0.53;100.00
61037;BME280;72210;47.076;15.430;2023-12-29T06:56:46;97422.69;;;0.56;100.00
61037;BME280;72210;47.076;15.430;2023-12-29T06:59:15;97436.44;;;0.50;100.00
61037;BME280;72210;47.076;15.430;2023-12-29T07:01:42;97434.72;;;0.51;100.00
61037;BME280;72210;47.076;15.430;2023-12-29T07:04:10;97434.78;;;0.48;100.00
61037;BME280;72210;47.076;15.430;2023-12-29T07:06:38;97432.31;;;0.43;100.00
61037;BME280;72210;47.076;15.430;2023-12-29T07:09:06;97438.25;;;0.47;100.00
61037;BME280;72210;47.076;15.430;2023-12-29T07:11:33;97431.50;;;0.41;100.00
61037;BME280;72210;47.076;15.430;2023-12-29T07:14:01;97433.16;;;0.44;100.00
61037;BME280;72210;47.076;15.430;2023-12-29T07:16:30;97453.63;;;0.47;100.00
61037;BME280;72210;47.076;15.430;2023-12-29T07:18:57;97451.06;;;0.47;100.00
61037;BME280;72210;47.076;15.430;2023-12-29T07:21:26;97448.50;;;0.47;100.00
61037;BME280;72210;47.076;15.430;2023-12-29T07:23:53;97451.88;;;0.47;100.00
61037;BME280;72210;47.076;15.430;2023-12-29T07:26:20;97465.44;;;0.52;100.00
61037;BME280;72210;47.076;15.430;2023-12-29T07:28:47;97468.81;;;0.56;100.00
61037;BME280;72210;47.076;15.430;2023-12-29T07:31:15;97463.72;;;0.55;100.00
61037;BME280;72210;47.076;15.430;2023-12-29T07:33:44;97464.59;;;0.53;100.00
61037;BME280;72210;47.076;15.430;2023-12-29T07:36:11;97473.91;;;0.59;100.00
61037;BME280;72210;47.076;15.430;2023-12-29T07:38:41;97463.63;;;0.61;100.00
61037;BME280;72210;47.076;15.430;2023-12-29T07:41:08;97463.53;;;0.65;100.00
61037;BME280;72210;47.076;15.430;2023-12-29T07:43:35;97471.09;;;0.73;100.00
61037;BME280;72210;47.076;15.430;2023-12-29T07:46:03;97464.16;;;0.77;100.00
61037;BME280;72210;47.076;15.430;2023-12-29T07:48:30;97469.97;;;0.85;100.00
61037;BME280;72210;47.076;15.430;2023-12-29T07:51:05;97464.75;;;0.91;100.00
61037;BME280;72210;47.076;15.430;2023-12-29T07:53:32;97464.69;;;0.94;100.00
61037;BME280;72210;47.076;15.430;2023-12-29T07:55:59;97453.41;;;1.03;100.00
61037;BME280;72210;47.076;15.430;2023-12-29T07:58:27;97451.53;;;1.10;100.00
61037;BME280;72210;47.076;15.430;2023-12-29T08:00:54;97459.88;;;1.21;100.00
61037;BME280;72210;47.076;15.430;2023-12-29T08:03:22;97469.06;;;1.31;100.00
61037;BME280;72210;47.076;15.430;2023-12-29T08:05:49;97467.09;;;1.42;100.00
61037;BME280;72210;47.076;15.430;2023-12-29T08:08:18;97459.91;;;1.58;100.00
61037;BME280;72210;47.076;15.430;2023-12-29T08:10:45;97467.28;;;1.74;100.00
61037;BME280;72210;47.076;15.430;2023-12-29T08:13:12;97459.22;;;1.89;100.00
61037;BME280;72210;47.076;15.430;2023-12-29T08:15:40;97451.09;;;2.06;100.00
61037;BME280;72210;47.076;15.430;2023-12-29T08:18:07;97446.97;;;3.29;100.00
61037;BME280;72210;47.076;15.430;2023-12-29T08:20:36;97430.50;;;5.63;100.00
61037;BME280;72210;47.076;15.430;2023-12-29T08:23:03;97426.16;;;7.49;100.00
61037;BME280;72210;47.076;15.430;2023-12-29T08:25:32;97438.34;;;9.06;100.00
61037;BME280;72210;47.076;15.430;2023-12-29T08:28:00;97429.34;;;10.09;76.27
61037;BME280;72210;47.076;15.430;2023-12-29T08:30:27;97426.88;;;11.11;67.29
61037;BME280;72210;47.076;15.430;2023-12-29T08:32:55;97420.59;;;11.84;57.87
61037;BME280;72210;47.076;15.430;2023-12-29T08:35:22;97412.53;;;12.42;53.78
61037;BME280;72210;47.076;15.430;2023-12-29T08:37:49;97409.66;;;12.98;50.91
61037;BME280;72210;47.076;15.430;2023-12-29T08:40:16;97405.94;;;13.76;47.89
61037;BME280;72210;47.076;15.430;2023-12-29T08:42:45;97402.88;;;14.66;45.72
61037;BME280;72210;47.076;15.430;2023-12-29T08:45:14;97411.66;;;15.89;42.81
61037;BME280;72210;47.076;15.430;2023-12-29T08:47:41;97413.63;;;16.83;39.90
61037;BME280;72210;47.076;15.430;2023-12-29T08:50:09;97410.59;;;17.90;37.07
61037;BME280;72210;47.076;15.430;2023-12-29T08:52:36;97415.75;;;18.30;35.74
61037;BME280;72210;47.076;15.430;2023-12-29T08:55:04;97409.13;;;19.03;34.60
61037;BME280;72210;47.076;15.430;2023-12-29T08:57:32;97426.63;;;19.42;33.35
61037;BME280;72210;47.076;15.430;2023-12-29T09:00:01;97421.88;;;19.73;32.44
61037;BME280;72210;47.076;15.430;2023-12-29T09:02:28;97425.53;;;19.72;31.97
61037;BME280;72210;47.076;15.430;2023-12-29T09:04:55;97426.34;;;20.00;32.18
61037;BME280;72210;47.076;15.430;2023-12-29T09:07:23;97424.53;;;19.73;31.82
61037;BME280;72210;47.076;15.430;2023-12-29T09:09:50;97420.44;;;19.33;31.09
61037;BME280;72210;47.076;15.430;2023-12-29T09:12:17;97425.69;;;18.95;31.62
61037;BME280;72210;47.076;15.430;2023-12-29T09:14:45;97422.91;;;18.97;33.07
61037;BME280;72210;47.076;15.430;2023-12-29T09:17:14;97420.16;;;19.36;31.04
61037;BME280;72210;47.076;15.430;2023-12-29T09:19:41;97431.44;;;19.84;30.89
61037;BME280;72210;47.076;15.430;2023-12-29T09:22:12;97420.03;;;20.29;30.67
61037;BME280;72210;47.076;15.430;2023-12-29T09:24:41;97413.91;;;20.91;30.21
61037;BME280;72210;47.076;15.430;2023-12-29T09:27:08;97419.59;;;21.30;29.55
61037;BME280;72210;47.076;15.430;2023-12-29T09:29:36;97416.31;;;21.71;28.71
61037;BME280;72210;47.076;15.430;2023-12-29T09:32:04;97411.53;;;21.83;28.13
61037;BME280;72210;47.076;15.430;2023-12-29T09:34:33;97413.75;;;22.12;27.78
61037;BME280;72210;47.076;15.430;2023-12-29T09:37:00;97406.81;;;22.28;26.75
61037;BME280;72210;47.076;15.430;2023-12-29T09:39:27;97406.75;;;21.86;27.72
61037;BME280;72210;47.076;15.430;2023-12-29T09:41:58;97416.53;;;21.17;28.35
61037;BME280;72210;47.076;15.430;2023-12-29T09:44:25;97409.94;;;20.69;28.80
61037;BME280;72210;47.076;15.430;2023-12-29T09:46:54;97413.72;;;19.94;29.22
61037;BME280;72210;47.076;15.430;2023-12-29T09:49:22;97407.56;;;19.48;30.64
61037;BME280;72210;47.076;15.430;2023-12-29T09:51:53;97406.00;;;18.80;31.13
61037;BME280;72210;47.076;15.430;2023-12-29T09:54:21;97404.09;;;18.23;31.70
61037;BME280;72210;47.076;15.430;2023-12-29T09:56:49;97402.22;;;17.75;32.81
61037;BME280;72210;47.076;15.430;2023-12-29T09:59:17;97407.00;;;17.50;33.21
61037;BME280;72210;47.076;15.430;2023-12-29T10:01:45;97405.59;;;17.46;33.79
61037;BME280;72210;47.076;15.430;2023-12-29T10:04:13;97396.88;;;17.46;33.98
61037;BME280;72210;47.076;15.430;2023-12-29T10:06:44;97397.41;;;17.39;33.75
61037;BME280;72210;47.076;15.430;2023-12-29T10:09:17;97394.19;;;17.86;33.03
61037;BME280;72210;47.076;15.430;2023-12-29T10:11:47;97384.19;;;17.80;32.28
61037;BME280;72210;47.076;15.430;2023-12-29T10:14:22;97387.41;;;17.84;33.03
61037;BME280;72210;47.076;15.430;2023-12-29T10:16:50;97402.97;;;18.16;32.00
61037;BME280;72210;47.076;15.430;2023-12-29T10:19:25;97383.69;;;18.64;32.05
61037;BME280;72210;47.076;15.430;2023-12-29T10:22:00;97379.28;;;18.26;31.78
61037;BME280;72210;47.076;15.430;2023-12-29T10:24:30;97365.09;;;18.46;31.98
61037;BME280;72210;47.076;15.430;2023-12-29T10:26:58;97369.34;;;18.87;32.09
61037;BME280;72210;47.076;15.430;2023-12-29T10:29:27;97368.59;;;19.32;31.36
61037;BME280;72210;47.076;15.430;2023-12-29T10:31:55;97365.13;;;19.04;31.24
61037;BME280;72210;47.076;15.430;2023-12-29T10:34:23;97364.31;;;18.83;31.73
61037;BME280;72210;47.076;15.430;2023-12-29T10:36:51;97366.47;;;18.41;32.45
61037;BME280;72210;47.076;15.430;2023-12-29T10:39:21;97361.38;;;18.29;32.63
61037;BME280;72210;47.076;15.430;2023-12-29T10:41:50;97360.81;;;18.16;32.32
61037;BME280;72210;47.076;15.430;2023-12-29T10:44:29;97343.31;;;18.44;31.64
61037;BME280;72210;47.076;15.430;2023-12-29T10:46:56;97333.59;;;18.45;31.79
61037;BME280;72210;47.076;15.430;2023-12-29T10:49:24;97343.09;;;18.85;31.01
61037;BME280;72210;47.076;15.430;2023-12-29T10:51:52;97336.25;;;18.92;30.94
61037;BME280;72210;47.076;15.430;2023-12-29T10:54:20;97335.63;;;18.71;31.25
61037;BME280;72210;47.076;15.430;2023-12-29T10:56:47;97330.44;;;18.89;31.29
61037;BME280;72210;47.076;15.430;2023-12-29T10:59:28;97337.78;;;18.95;30.70
61037;BME280;72210;47.076;15.430;2023-12-29T11:01:56;97338.69;;;19.13;30.77
61037;BME280;72210;47.076;15.430;2023-12-29T11:04:32;97325.75;;;20.20;29.45
61037;BME280;72210;47.076;15.430;2023-12-29T11:07:00;97318.31;;;21.45;27.97
61037;BME280;72210;47.076;15.430;2023-12-29T11:09:28;97317.47;;;22.03;27.49
61037;BME280;72210;47.076;15.430;2023-12-29T11:11:56;97315.97;;;22.17;27.07
61037;BME280;72210;47.076;15.430;2023-12-29T11:14:25;97302.03;;;22.48;26.37
61037;BME280;72210;47.076;15.430;2023-12-29T11:16:55;97303.38;;;23.00;25.97
61037;BME280;72210;47.076;15.430;2023-12-29T11:19:22;97301.63;;;23.55;25.30
61037;BME280;72210;47.076;15.430;2023-12-29T11:21:51;97303.28;;;24.11;24.51
61037;BME280;72210;47.076;15.430;2023-12-29T11:24:19;97302.94;;;24.52;23.93
61037;BME280;72210;47.076;15.430;2023-12-29T11:26:56;97298.56;;;24.36;24.64
61037;BME280;72210;47.076;15.430;2023-12-29T11:29:24;97282.06;;;24.41;24.58
61037;BME280;72210;47.076;15.430;2023-12-29T11:31:54;97285.72;;;24.63;24.52
61037;BME280;72210;47.076;15.430;2023-12-29T11:34:25;97284.22;;;24.60;23.38
61037;BME280;72210;47.076;15.430;2023-12-29T11:37:01;97281.03;;;24.65;24.10
61037;BME280;72210;47.076;15.430;2023-12-29T11:39:40;97266.94;;;24.56;23.83
61037;BME280;72210;47.076;15.430;2023-12-29T11:42:17;97256.19;;;24.49;23.41
61037;BME280;72210;47.076;15.430;2023-12-29T11:44:46;97252.41;;;24.29;23.78
61037;BME280;72210;47.076;15.430;2023-12-29T11:47:36;97264.59;;;24.61;23.50
61037;BME280;72210;47.076;15.430;2023-12-29T11:50:04;97255.63;;;25.29;23.57
61037;BME280;72210;47.076;15.430;2023-12-29T11:52:35;97259.22;;;25.79;23.02
61037;BME280;72210;47.076;15.430;2023-12-29T11:55:09;97254.19;;;25.69;21.95
61037;BME280;72210;47.076;15.430;2023-12-29T11:57:37;97253.31;;;25.25;22.38
61037;BME280;72210;47.076;15.430;2023-12-29T12:00:06;97258.59;;;24.59;23.90
61037;BME280;72210;47.076;15.430;2023-12-29T12:02:37;97250.69;;;23.98;24.70
61037;BME280;72210;47.076;15.430;2023-12-29T12:05:10;97253.06;;;23.70;25.23
61037;BME280;72210;47.076;15.430;2023-12-29T12:07:57;97245.03;;;23.23;25.13
61037;BME280;72210;47.076;15.430;2023-12-29T12:10:30;97252.31;;;22.34;25.68
61037;BME280;72210;47.076;15.430;2023-12-29T12:12:59;97237.44;;;21.75;26.65
61037;BME280;72210;47.076;15.430;2023-12-29T12:15:33;97245.75;;;21.21;27.66
61037;BME280;72210;47.076;15.430;2023-12-29T12:18:03;97244.03;;;20.35;28.46
61037;BME280;72210;47.076;15.430;2023-12-29T12:20:31;97247.66;;;19.35;30.01
61037;BME280;72210;47.076;15.430;2023-12-29T12:23:00;97231.72;;;18.44;31.67
61037;BME280;72210;47.076;15.430;2023-12-29T12:25:30;97239.31;;;17.80;32.80
61037;BME280;72210;47.076;15.430;2023-12-29T12:27:58;97243.75;;;17.31;33.19
61037;BME280;72210;47.076;15.430;2023-12-29T12:30:25;97233.47;;;16.67;33.90
61037;BME280;72210;47.076;15.430;2023-12-29T12:32:59;97226.28;;;16.08;34.99
61037;BME280;72210;47.076;15.430;2023-12-29T12:35:30;97234.00;;;15.67;36.22
61037;BME280;72210;47.076;15.430;2023-12-29T12:38:08;97232.69;;;15.40;37.05
61037;BME280;72210;47.076;15.430;2023-12-29T12:40:35;97230.50;;;15.13;37.59
61037;BME280;72210;47.076;15.430;2023-12-29T12:43:03;97226.13;;;15.02;37.53
61037;BME280;72210;47.076;15.430;2023-12-29T12:45:34;97222.34;;;14.84;38.34
61037;BME280;72210;47.076;15.430;2023-12-29T12:48:12;97224.63;;;14.77;37.83
61037;BME280;72210;47.076;15.430;2023-12-29T12:50:44;97225.69;;;14.63;38.64
61037;BME280;72210;47.076;15.430;2023-12-29T12:53:12;97232.56;;;14.42;38.75
61037;BME280;72210;47.076;15.430;2023-12-29T12:55:42;97227.22;;;14.32;39.28